עמוד ראשי
METAR-TAF:

METAR-TAF

שדות תעופה :

פורטו, פורטוגל

קו רוחב: 41-14N, קו אורך: 008-41W, גובה: 69מטר

תצפית מזג אוויר נוכחית

הדו"ח נערך לפני 25דקות, בשעה 18:00 UTC
רוח 9קשר מכיוון צפון/צפון-מערב
טמפרטורת 31 צלסיוס
לחות 43%
לחץ 1017 hPa
ראות 10 קילומטר או יותר
ללא עננים שבסיסם נמוך מ 5000 רגל או קומולונימבוס

METAR: LPPR 231800Z 34009KT CAVOK 31/17 Q1017

זמן: 19:25 (18:25 UTC)

תחזית

הדו"ח נערך לפני 1 שעות ו 25דקות, בשעה 17:00 UTC
תחזית בתוקף מ 23 ב 18 UTC עד 24 ב 18 UTC
רוח 8קשר מכיוון צפון/צפון-מערב
ראות 10 קילומטר או יותר
ללא עננים שבסיסם נמוך מ 5000 רגל או קומולונימבוס
יעשה מ
23 ב 21 UTC עד 23 ב 23 UTC
רוח 2קשר עם כיוונים משתנים
הסתברות 40%
24 ב 00 UTC עד 24 ב 07 UTC
ראות: 3000מטר
עננים פזורים בגובה 400רגל
עננים בינוניים בגובה 800רגל
אד
יעשה מ
24 ב 09 UTC עד 24 ב 11 UTC
רוח 8קשר מכיוון מערב/דרום-מערב
יעשה מ
24 ב 12 UTC עד 24 ב 14 UTC
רוח 8קשר מכיוון צפון-מערב

TAF: LPPR 231700Z 2318/2418 34008KT CAVOK BECMG 2321/2323 VRB02KT PROB40 2400/2407 3000 BR SCT004 BKN008 BECMG 2409/2411 24008KT BECMG 2412/2414 31008KT

תצפיות ותחזיות מזג אוויר לגבי יותר מ- 4,000 שדות תעופה ברחבי העולם. דוחות METAR ו- TAF.

התחנות הזמינות מסומנות בנקודות צהובות ואדומות על גבי המפה.

העבר את העכבר לנקודה הצבעונית על מנת לראות את שם התחנה.

לאחר מכן, לחץ כדי לראות את תוכן ואת תחזיות מזג האוויר.

כדי לשנות את המפה: לחץ על הכפתורים הירוקים עם הפלוס השחור כדי להתקרב; על הכפתור הירוק עם המקף כדי להתרחק; או בחיצים הירוקים למפות סמוכות.


METAR-TAF: